• Join FlightAware (Why Join?)
  • Login
  • US Flag 
05:44PM EDT


 

Airport Tracker/Info


-or-


 

Live Flight TrackerFlight Track Log ✈ UAL4846 ✈ 21-Apr-2013 ✈ KEWR - KPVD

Flight Track Log - Related Links

Times and Time Zones

All times are in EDT time to prevent confusion due to time zone crossing. See the UAL4846 flight status page for this flight to view local times or setup timezone preferences in your user account.

Time Position Orientation Groundspeed Altitude Reporting Facility
EDT Latitude Longitude Course Direction KTS MPH feet Rate Location/Type
11:51AM 40.8684 -73.7192 63° Northeast  Level Estimated
11:52AM 40.8976 -73.6440 63° Northeast  Level Estimated
11:53AM 40.9267 -73.5688 63° Northeast  Level Estimated
11:54AM 40.9557 -73.4935 63° Northeast  Level Estimated
11:55AM 40.9847 -73.4182 63° Northeast  Level Estimated
11:56AM 41.0137 -73.3428 63° Northeast  Level Estimated
11:57AM 41.0426 -73.2673 63° Northeast  Level Estimated
11:58AM 41.0714 -73.1918 63° Northeast  Level Estimated
11:59AM 41.1002 -73.1162 63° Northeast  Level Estimated
12:00PM 41.1290 -73.0405 63° Northeast  Level Estimated
12:01PM 41.1577 -72.9647 63° Northeast  Level Estimated
12:02PM 41.1863 -72.8889 63° Northeast  Level Estimated
12:03PM 41.2149 -72.8131 63° Northeast  Level Estimated
12:04PM 41.2435 -72.7371 63° Northeast  Level Estimated
12:05PM 41.2720 -72.6611 63° Northeast  Level Estimated
12:06PM 41.3005 -72.5850 64° Northeast  Level Estimated
12:07PM 41.3289 -72.5089 64° Northeast  Level Estimated
12:08PM 41.3572 -72.4327 64° Northeast  Level Estimated
12:09PM 41.3855 -72.3564 64° Northeast  Level Estimated
12:10PM 41.4138 -72.2801 64° Northeast  Level Estimated
12:11PM 41.4420 -72.2037 64° Northeast  Level Estimated
12:12PM 41.4701 -72.1272 64° Northeast  Level Estimated
12:13PM 41.4982 -72.0507 64° Northeast  Level Estimated
12:14PM 41.5263 -71.9741 64° Northeast  Level Estimated
12:15PM 41.5543 -71.8974 64° Northeast  Level Estimated
12:16PM 41.5822 -71.8206 64° Northeast  Level Estimated
12:17PM 41.6101 -71.7439 64° Northeast  Level Estimated
12:18PM 41.6380 -71.6670 64° Northeast  Level Estimated
12:19PM 41.6658 -71.5900 64° Northeast  Level Estimated
12:20PM 41.6935 -71.5130 64° Northeast  Level Estimated
12:21PM 41.7212 -71.4360 64° Northeast  Level Estimated
12:22PM 41.7240 -71.4282 64° Northeast  Level Estimated
12:23PM 41.7240 -71.4282 226° Southwest  Level Estimated
12:24PM 41.7240 -71.4282 226° Southwest  Level Estimated
12:25PM 41.7240 -71.4282 226° Southwest  Level Estimated
12:26PM 41.7240 -71.4282 226° Southwest  Level Estimated
12:27PM 41.7240 -71.4282 226° Southwest  Level Estimated
12:28PM 41.7240 -71.4282 226° Southwest  Level Estimated
12:29PM 41.7240 -71.4282 226° Southwest  Level Estimated
12:30PM 41.7240 -71.4282 226° Southwest  Level Estimated
12:31PM 41.7240 -71.4282 226° Southwest  Level Estimated
12:32PM 41.7240 -71.4282 226° Southwest  Level Estimated
12:33PM 41.7240 -71.4282 226° Southwest  Level Estimated
12:34PM 41.7240 -71.4282 226° Southwest  Level Estimated
12:35PM 41.7240 -71.4282 226° Southwest  Level Estimated
12:36PM 41.7240 -71.4282 226° Southwest  Level Estimated
12:37PM 41.7240 -71.4282 226° Southwest  Level Estimated